PWSweather.com
Personal Weather Stations
Station Observations
WISCHPK61
Green Bay Schmitt Park, Green Bay, WI 54311

Green Bay Schmitt ParkGreen Bay, WI 54311

Lat: 44.514277, Lon: -87.935067

Elevation: 735

Station Type: Acu Rite Pro Weather Center model 02032C

http://greenbayweathercam.com

High Low Average
Temperature 30.2°F-1.0°C 13.1°F-10.5°C 19.8°F-6.8°C
Dew Point 30.0°F-1.1°C 3.9°F-15.6°C 17.4°F-8.1°C
Winds 1.2 mph 1.9 kmh Calm Calm Calm SWCalm SW
Wind Gusts 4.6 mph7.4 kmh -- --
Humidity 99% 55% 91%
Pressure 29.61 in1002.7 mb 29.26 in990.9 mb -
Precipitation 0.00 in0.0 mm - -
Hour Temp Dew Point Humidity Winds Wind Gusts Pressure Precip Precip Rate Daily Precip Total
12:00 AM 31.1°F-0.5°C 27.1°F-2.7°C 85% Calm Calm -- 29.23 in989.8 mb - 0.00 in0.0 mm 0.00 in0.0 mm
01:00 AM 30.2°F-1.0°C 30.0°F-1.1°C 99% 1.2 mph NW1.9 kmh NW 4.6 mph7.4 kmh 29.26 in990.9 mb - 0.00 in0.0 mm 0.00 in0.0 mm
02:00 AM 29.3°F-1.5°C 20.0°F-6.7°C 68% Calm Calm -- 29.28 in991.5 mb - 0.00 in0.0 mm 0.00 in0.0 mm
03:00 AM 28.9°F-1.7°C 28.7°F-1.8°C 99% Calm Calm -- 29.32 in992.9 mb - 0.00 in0.0 mm 0.00 in0.0 mm
04:00 AM 28.2°F-2.1°C 27.5°F-2.5°C 97% 1.2 mph NW1.9 kmh NW 2.3 mph3.7 kmh 29.35 in993.9 mb - 0.00 in0.0 mm 0.00 in0.0 mm
05:00 AM 24.8°F-4.0°C 24.6°F-4.1°C 99% Calm Calm -- 29.40 in995.6 mb - 0.00 in0.0 mm 0.00 in0.0 mm
06:00 AM 20.8°F-6.2°C 17.5°F-8.1°C 87% Calm Calm 1.2 mph1.9 kmh 29.42 in996.3 mb - 0.00 in0.0 mm 0.00 in0.0 mm
07:00 AM 17.5°F-8.1°C 17.3°F-8.2°C 99% Calm Calm -- 29.47 in998.0 mb - 0.00 in0.0 mm 0.00 in0.0 mm
08:00 AM 15.3°F-9.3°C 6.9°F-13.9°C 69% 1.2 mph NE1.9 kmh NE -- 29.52 in999.7 mb - 0.00 in0.0 mm 0.00 in0.0 mm
09:00 AM 14.2°F-9.9°C 3.9°F-15.6°C 63% Calm Calm 1.2 mph1.9 kmh 29.55 in1000.7 mb - 0.00 in0.0 mm 0.00 in0.0 mm
10:00 AM 15.3°F-9.3°C 8.5°F-13.1°C 74% Calm Calm -- 29.57 in1001.4 mb - 0.00 in0.0 mm 0.00 in0.0 mm
11:00 AM 18.1°F-7.7°C 17.9°F-7.8°C 99% Calm Calm -- 29.60 in1002.4 mb - 0.00 in0.0 mm 0.00 in0.0 mm
12:00 PM 21.6°F-5.8°C 7.9°F-13.4°C 55% 1.2 mph NW1.9 kmh NW 1.2 mph1.9 kmh 29.61 in1002.7 mb - 0.00 in0.0 mm 0.00 in0.0 mm
01:00 PM 25.0°F-3.9°C 24.7°F-4.1°C 99% Calm Calm -- 29.60 in1002.4 mb - 0.00 in0.0 mm 0.00 in0.0 mm
02:00 PM 25.1°F-3.8°C 24.9°F-3.9°C 99% Calm Calm -- 29.59 in1002.0 mb - 0.00 in0.0 mm 0.00 in0.0 mm
03:00 PM 22.0°F-5.6°C 21.8°F-5.7°C 99% Calm Calm -- 29.59 in1002.0 mb - 0.00 in0.0 mm 0.00 in0.0 mm
04:00 PM 22.3°F-5.4°C 22.1°F-5.5°C 99% Calm Calm -- 29.59 in1002.0 mb - 0.00 in0.0 mm 0.00 in0.0 mm
05:00 PM 19.8°F-6.8°C 19.6°F-6.9°C 99% Calm Calm -- 29.59 in1002.0 mb - 0.00 in0.0 mm 0.00 in0.0 mm
06:00 PM 16.3°F-8.7°C 16.1°F-8.8°C 99% Calm Calm -- 29.59 in1002.0 mb - 0.00 in0.0 mm 0.00 in0.0 mm
07:00 PM 14.5°F-9.7°C 14.3°F-9.8°C 99% Calm Calm -- 29.60 in1002.4 mb - 0.00 in0.0 mm 0.00 in0.0 mm
08:00 PM 13.5°F-10.3°C 13.3°F-10.4°C 99% Calm Calm -- 29.60 in1002.4 mb - 0.00 in0.0 mm 0.00 in0.0 mm
09:00 PM 13.6°F-10.2°C 13.4°F-10.3°C 99% Calm Calm -- 29.60 in1002.4 mb - 0.00 in0.0 mm 0.00 in0.0 mm
10:00 PM 13.6°F-10.2°C 13.4°F-10.3°C 99% Calm Calm -- 29.59 in1002.0 mb - 0.00 in0.0 mm 0.00 in0.0 mm
11:00 PM 13.3°F-10.4°C 10.4°F-12.0°C 88% Calm Calm -- 29.58 in1001.7 mb - 0.00 in0.0 mm 0.00 in0.0 mm